Terminal Aerodrome Forecast
Issued by NWS

Current Version | Previous Version | Graphics & Text | Print | Product List | Glossary On
Versions: 1 2 3 4 5 6 7 8 9 10 11 12 13 14 15 16 17 18 19 20 21 22 23 24 25 26 27 28 29 30 31 32 33 34 35 36 37 38 39 40 41 42 43 44 45 46 47
000
FTUS41 KRNK 040213 AAA
TAFLWB
TAF AMD
KLWB 040213Z 0402/0424 00000KT 6SM -SHRA BR OVC010
     FM040400 00000KT 1SM -DZ BR OVC004
     FM041500 28005KT P6SM OVC015
     FM042000 29005KT P6SM OVC040=

USA.gov is the U.S. government's official web portal to all federal, state and local government web resources and services.